sensor_id;sensor_type;location;lat;lon;timestamp;temperature;humidity
51383;DHT22;37475;43.358;1.248;2023-08-12T00:01:51;21.60;79.00
51383;DHT22;37475;43.358;1.248;2023-08-12T00:04:17;21.60;79.10
51383;DHT22;37475;43.358;1.248;2023-08-12T00:06:43;21.70;78.30
51383;DHT22;37475;43.358;1.248;2023-08-12T00:09:09;21.70;78.90
51383;DHT22;37475;43.358;1.248;2023-08-12T00:11:37;21.50;79.70
51383;DHT22;37475;43.358;1.248;2023-08-12T00:14:04;21.10;80.90
51383;DHT22;37475;43.358;1.248;2023-08-12T00:16:30;21.10;81.20
51383;DHT22;37475;43.358;1.248;2023-08-12T00:18:56;21.10;81.40
51383;DHT22;37475;43.358;1.248;2023-08-12T00:21:21;21.00;82.30
51383;DHT22;37475;43.358;1.248;2023-08-12T00:23:47;21.00;82.60
51383;DHT22;37475;43.358;1.248;2023-08-12T00:26:15;21.10;82.30
51383;DHT22;37475;43.358;1.248;2023-08-12T00:28:41;21.10;82.10
51383;DHT22;37475;43.358;1.248;2023-08-12T00:31:07;21.10;82.10
51383;DHT22;37475;43.358;1.248;2023-08-12T00:33:33;21.00;82.20
51383;DHT22;37475;43.358;1.248;2023-08-12T00:35:59;21.00;82.60
51383;DHT22;37475;43.358;1.248;2023-08-12T00:38:25;20.90;82.70
51383;DHT22;37475;43.358;1.248;2023-08-12T00:40:51;21.00;81.90
51383;DHT22;37475;43.358;1.248;2023-08-12T00:43:16;21.00;82.30
51383;DHT22;37475;43.358;1.248;2023-08-12T00:45:42;20.90;82.40
51383;DHT22;37475;43.358;1.248;2023-08-12T00:48:08;20.90;82.70
51383;DHT22;37475;43.358;1.248;2023-08-12T00:50:36;20.80;83.20
51383;DHT22;37475;43.358;1.248;2023-08-12T00:53:03;20.80;83.00
51383;DHT22;37475;43.358;1.248;2023-08-12T00:55:32;20.80;82.90
51383;DHT22;37475;43.358;1.248;2023-08-12T00:57:59;20.60;83.70
51383;DHT22;37475;43.358;1.248;2023-08-12T01:00:25;20.80;83.10
51383;DHT22;37475;43.358;1.248;2023-08-12T01:02:51;20.80;82.60
51383;DHT22;37475;43.358;1.248;2023-08-12T01:05:18;20.90;82.40
51383;DHT22;37475;43.358;1.248;2023-08-12T01:07:45;21.00;82.10
51383;DHT22;37475;43.358;1.248;2023-08-12T01:10:12;20.90;82.20
51383;DHT22;37475;43.358;1.248;2023-08-12T01:12:49;20.80;82.70
51383;DHT22;37475;43.358;1.248;2023-08-12T01:15:24;20.70;83.20
51383;DHT22;37475;43.358;1.248;2023-08-12T01:17:53;20.50;84.50
51383;DHT22;37475;43.358;1.248;2023-08-12T01:20:24;20.20;85.40
51383;DHT22;37475;43.358;1.248;2023-08-12T01:23:18;20.00;86.10
51383;DHT22;37475;43.358;1.248;2023-08-12T01:25:45;20.00;86.50
51383;DHT22;37475;43.358;1.248;2023-08-12T01:28:11;19.90;86.80
51383;DHT22;37475;43.358;1.248;2023-08-12T01:30:53;19.80;86.90
51383;DHT22;37475;43.358;1.248;2023-08-12T01:33:35;19.90;86.90
51383;DHT22;37475;43.358;1.248;2023-08-12T01:36:16;19.80;87.00
51383;DHT22;37475;43.358;1.248;2023-08-12T01:38:43;19.80;86.70
51383;DHT22;37475;43.358;1.248;2023-08-12T01:41:11;19.80;86.70
51383;DHT22;37475;43.358;1.248;2023-08-12T01:43:39;19.80;86.90
51383;DHT22;37475;43.358;1.248;2023-08-12T01:46:06;19.90;86.90
51383;DHT22;37475;43.358;1.248;2023-08-12T01:48:31;20.00;86.60
51383;DHT22;37475;43.358;1.248;2023-08-12T01:50:57;20.00;86.30
51383;DHT22;37475;43.358;1.248;2023-08-12T01:53:23;20.00;86.10
51383;DHT22;37475;43.358;1.248;2023-08-12T01:55:50;20.00;86.30
51383;DHT22;37475;43.358;1.248;2023-08-12T01:58:17;20.00;86.80
51383;DHT22;37475;43.358;1.248;2023-08-12T02:00:43;20.00;87.00
51383;DHT22;37475;43.358;1.248;2023-08-12T02:03:08;20.00;86.90
51383;DHT22;37475;43.358;1.248;2023-08-12T02:05:34;19.80;87.50
51383;DHT22;37475;43.358;1.248;2023-08-12T02:08:03;19.60;88.10
51383;DHT22;37475;43.358;1.248;2023-08-12T02:10:29;19.50;88.40
51383;DHT22;37475;43.358;1.248;2023-08-12T02:12:55;19.50;88.60
51383;DHT22;37475;43.358;1.248;2023-08-12T02:15:21;19.40;88.70
51383;DHT22;37475;43.358;1.248;2023-08-12T02:17:47;19.50;88.80
51383;DHT22;37475;43.358;1.248;2023-08-12T02:20:13;19.40;88.90
51383;DHT22;37475;43.358;1.248;2023-08-12T02:22:39;19.40;89.00
51383;DHT22;37475;43.358;1.248;2023-08-12T02:25:05;19.40;89.10
51383;DHT22;37475;43.358;1.248;2023-08-12T02:27:30;19.40;89.20
51383;DHT22;37475;43.358;1.248;2023-08-12T02:29:56;19.40;89.20
51383;DHT22;37475;43.358;1.248;2023-08-12T02:32:22;19.40;89.30
51383;DHT22;37475;43.358;1.248;2023-08-12T02:34:48;19.40;89.30
51383;DHT22;37475;43.358;1.248;2023-08-12T02:37:13;19.40;89.40
51383;DHT22;37475;43.358;1.248;2023-08-12T02:39:39;19.40;89.30
51383;DHT22;37475;43.358;1.248;2023-08-12T02:42:05;19.40;89.40
51383;DHT22;37475;43.358;1.248;2023-08-12T02:44:31;19.40;89.40
51383;DHT22;37475;43.358;1.248;2023-08-12T02:46:57;19.40;89.40
51383;DHT22;37475;43.358;1.248;2023-08-12T02:49:23;19.30;89.60
51383;DHT22;37475;43.358;1.248;2023-08-12T02:51:49;19.40;89.70
51383;DHT22;37475;43.358;1.248;2023-08-12T02:54:15;19.40;89.70
51383;DHT22;37475;43.358;1.248;2023-08-12T02:56:41;19.40;89.80
51383;DHT22;37475;43.358;1.248;2023-08-12T02:59:06;19.40;89.60
51383;DHT22;37475;43.358;1.248;2023-08-12T03:01:32;19.50;89.60
51383;DHT22;37475;43.358;1.248;2023-08-12T03:03:58;19.50;89.20
51383;DHT22;37475;43.358;1.248;2023-08-12T03:06:24;19.50;89.30
51383;DHT22;37475;43.358;1.248;2023-08-12T03:08:49;19.50;89.40
51383;DHT22;37475;43.358;1.248;2023-08-12T03:11:15;19.50;89.30
51383;DHT22;37475;43.358;1.248;2023-08-12T03:13:42;19.50;89.20
51383;DHT22;37475;43.358;1.248;2023-08-12T03:16:12;19.50;88.90
51383;DHT22;37475;43.358;1.248;2023-08-12T03:18:41;19.50;89.00
51383;DHT22;37475;43.358;1.248;2023-08-12T03:21:08;19.40;89.00
51383;DHT22;37475;43.358;1.248;2023-08-12T03:23:37;19.40;88.90
51383;DHT22;37475;43.358;1.248;2023-08-12T03:26:04;19.30;89.60
51383;DHT22;37475;43.358;1.248;2023-08-12T03:28:30;19.20;90.20
51383;DHT22;37475;43.358;1.248;2023-08-12T03:30:56;19.30;90.00
51383;DHT22;37475;43.358;1.248;2023-08-12T03:33:22;19.20;90.10
51383;DHT22;37475;43.358;1.248;2023-08-12T03:35:48;19.10;90.30
51383;DHT22;37475;43.358;1.248;2023-08-12T03:38:14;19.10;90.30
51383;DHT22;37475;43.358;1.248;2023-08-12T03:40:41;19.10;90.40
51383;DHT22;37475;43.358;1.248;2023-08-12T03:43:07;19.10;90.20
51383;DHT22;37475;43.358;1.248;2023-08-12T03:45:39;19.10;90.40
51383;DHT22;37475;43.358;1.248;2023-08-12T03:48:06;19.20;90.30
51383;DHT22;37475;43.358;1.248;2023-08-12T03:50:36;19.20;90.00
51383;DHT22;37475;43.358;1.248;2023-08-12T03:53:02;19.20;89.90
51383;DHT22;37475;43.358;1.248;2023-08-12T03:55:33;19.20;89.80
51383;DHT22;37475;43.358;1.248;2023-08-12T03:58:00;19.20;89.50
51383;DHT22;37475;43.358;1.248;2023-08-12T04:00:26;19.20;89.50
51383;DHT22;37475;43.358;1.248;2023-08-12T04:02:53;19.20;89.70
51383;DHT22;37475;43.358;1.248;2023-08-12T04:05:18;19.10;89.80
51383;DHT22;37475;43.358;1.248;2023-08-12T04:07:44;19.10;90.00
51383;DHT22;37475;43.358;1.248;2023-08-12T04:10:10;19.10;89.80
51383;DHT22;37475;43.358;1.248;2023-08-12T04:12:37;19.10;89.90
51383;DHT22;37475;43.358;1.248;2023-08-12T04:15:03;19.10;89.90
51383;DHT22;37475;43.358;1.248;2023-08-12T04:17:31;19.10;89.80
51383;DHT22;37475;43.358;1.248;2023-08-12T04:19:57;19.10;89.80
51383;DHT22;37475;43.358;1.248;2023-08-12T04:22:23;19.00;90.10
51383;DHT22;37475;43.358;1.248;2023-08-12T04:24:49;19.00;90.20
51383;DHT22;37475;43.358;1.248;2023-08-12T04:27:15;18.90;90.30
51383;DHT22;37475;43.358;1.248;2023-08-12T04:29:42;18.80;90.40
51383;DHT22;37475;43.358;1.248;2023-08-12T04:32:08;18.80;90.50
51383;DHT22;37475;43.358;1.248;2023-08-12T04:34:34;18.70;90.80
51383;DHT22;37475;43.358;1.248;2023-08-12T04:36:59;18.60;91.00
51383;DHT22;37475;43.358;1.248;2023-08-12T04:39:25;18.60;91.30
51383;DHT22;37475;43.358;1.248;2023-08-12T04:41:51;18.60;91.70
51383;DHT22;37475;43.358;1.248;2023-08-12T04:44:17;18.50;91.90
51383;DHT22;37475;43.358;1.248;2023-08-12T04:46:43;18.40;92.10
51383;DHT22;37475;43.358;1.248;2023-08-12T04:49:08;18.40;92.30
51383;DHT22;37475;43.358;1.248;2023-08-12T04:51:34;18.40;92.30
51383;DHT22;37475;43.358;1.248;2023-08-12T04:54:00;18.40;92.40
51383;DHT22;37475;43.358;1.248;2023-08-12T04:56:27;18.40;92.40
51383;DHT22;37475;43.358;1.248;2023-08-12T04:58:56;18.50;92.50
51383;DHT22;37475;43.358;1.248;2023-08-12T05:01:22;18.40;92.60
51383;DHT22;37475;43.358;1.248;2023-08-12T05:03:47;18.30;92.70
51383;DHT22;37475;43.358;1.248;2023-08-12T05:06:13;18.30;92.80
51383;DHT22;37475;43.358;1.248;2023-08-12T05:08:39;18.40;92.80
51383;DHT22;37475;43.358;1.248;2023-08-12T05:11:05;18.50;92.80
51383;DHT22;37475;43.358;1.248;2023-08-12T05:13:30;18.50;92.80
51383;DHT22;37475;43.358;1.248;2023-08-12T05:15:56;18.50;92.70
51383;DHT22;37475;43.358;1.248;2023-08-12T05:18:23;18.50;92.60
51383;DHT22;37475;43.358;1.248;2023-08-12T05:20:50;18.60;92.50
51383;DHT22;37475;43.358;1.248;2023-08-12T05:23:16;18.50;92.50
51383;DHT22;37475;43.358;1.248;2023-08-12T05:25:42;18.50;92.50
51383;DHT22;37475;43.358;1.248;2023-08-12T05:28:08;18.60;92.50
51383;DHT22;37475;43.358;1.248;2023-08-12T05:30:35;18.60;92.50
51383;DHT22;37475;43.358;1.248;2023-08-12T05:33:00;18.60;92.50
51383;DHT22;37475;43.358;1.248;2023-08-12T05:35:26;18.70;92.50
51383;DHT22;37475;43.358;1.248;2023-08-12T05:37:52;18.80;92.40
51383;DHT22;37475;43.358;1.248;2023-08-12T05:40:18;18.80;92.40
51383;DHT22;37475;43.358;1.248;2023-08-12T05:42:44;18.90;92.30
51383;DHT22;37475;43.358;1.248;2023-08-12T05:45:10;18.90;92.20
51383;DHT22;37475;43.358;1.248;2023-08-12T05:47:36;19.00;92.10
51383;DHT22;37475;43.358;1.248;2023-08-12T05:50:02;19.10;92.10
51383;DHT22;37475;43.358;1.248;2023-08-12T05:52:28;19.10;92.00
51383;DHT22;37475;43.358;1.248;2023-08-12T05:54:53;19.10;92.00
51383;DHT22;37475;43.358;1.248;2023-08-12T05:57:19;19.20;91.90
51383;DHT22;37475;43.358;1.248;2023-08-12T05:59:45;19.30;91.70
51383;DHT22;37475;43.358;1.248;2023-08-12T06:02:11;19.50;91.40
51383;DHT22;37475;43.358;1.248;2023-08-12T06:04:36;19.60;91.10
51383;DHT22;37475;43.358;1.248;2023-08-12T06:07:02;19.70;91.00
51383;DHT22;37475;43.358;1.248;2023-08-12T06:09:28;19.70;90.70
51383;DHT22;37475;43.358;1.248;2023-08-12T06:11:54;19.80;90.60
51383;DHT22;37475;43.358;1.248;2023-08-12T06:14:19;19.90;90.50
51383;DHT22;37475;43.358;1.248;2023-08-12T06:16:45;20.00;90.30
51383;DHT22;37475;43.358;1.248;2023-08-12T06:19:11;20.10;90.20
51383;DHT22;37475;43.358;1.248;2023-08-12T06:21:37;20.20;89.90
51383;DHT22;37475;43.358;1.248;2023-08-12T06:24:03;20.20;89.60
51383;DHT22;37475;43.358;1.248;2023-08-12T06:26:29;20.30;89.50
51383;DHT22;37475;43.358;1.248;2023-08-12T06:28:55;20.30;89.30
51383;DHT22;37475;43.358;1.248;2023-08-12T06:31:20;20.30;89.30
51383;DHT22;37475;43.358;1.248;2023-08-12T06:33:46;20.30;89.20
51383;DHT22;37475;43.358;1.248;2023-08-12T06:36:12;20.30;89.30
51383;DHT22;37475;43.358;1.248;2023-08-12T06:38:38;20.40;89.20
51383;DHT22;37475;43.358;1.248;2023-08-12T06:41:03;20.50;88.90
51383;DHT22;37475;43.358;1.248;2023-08-12T06:43:29;20.40;88.70
51383;DHT22;37475;43.358;1.248;2023-08-12T06:45:55;20.40;88.60
51383;DHT22;37475;43.358;1.248;2023-08-12T06:48:21;20.50;88.40
51383;DHT22;37475;43.358;1.248;2023-08-12T06:50:55;20.50;88.40
51383;DHT22;37475;43.358;1.248;2023-08-12T06:53:22;20.60;88.30
51383;DHT22;37475;43.358;1.248;2023-08-12T06:55:48;20.60;88.00
51383;DHT22;37475;43.358;1.248;2023-08-12T06:58:14;20.60;88.00
51383;DHT22;37475;43.358;1.248;2023-08-12T07:00:43;20.60;87.70
51383;DHT22;37475;43.358;1.248;2023-08-12T07:03:09;20.60;87.50
51383;DHT22;37475;43.358;1.248;2023-08-12T07:05:34;20.70;87.30
51383;DHT22;37475;43.358;1.248;2023-08-12T07:08:00;20.80;87.30
51383;DHT22;37475;43.358;1.248;2023-08-12T07:10:26;20.90;87.40
51383;DHT22;37475;43.358;1.248;2023-08-12T07:12:52;21.00;86.70
51383;DHT22;37475;43.358;1.248;2023-08-12T07:15:17;21.00;86.60
51383;DHT22;37475;43.358;1.248;2023-08-12T07:17:43;21.10;86.60
51383;DHT22;37475;43.358;1.248;2023-08-12T07:20:09;21.20;86.40
51383;DHT22;37475;43.358;1.248;2023-08-12T07:22:35;21.20;86.30
51383;DHT22;37475;43.358;1.248;2023-08-12T07:25:01;21.30;86.10
51383;DHT22;37475;43.358;1.248;2023-08-12T07:27:27;21.30;86.30
51383;DHT22;37475;43.358;1.248;2023-08-12T07:29:53;21.30;86.10
51383;DHT22;37475;43.358;1.248;2023-08-12T07:32:19;21.40;86.30
51383;DHT22;37475;43.358;1.248;2023-08-12T07:34:45;21.50;86.30
51383;DHT22;37475;43.358;1.248;2023-08-12T07:37:11;21.70;85.80
51383;DHT22;37475;43.358;1.248;2023-08-12T07:39:37;22.00;85.90
51383;DHT22;37475;43.358;1.248;2023-08-12T07:42:03;22.10;85.50
51383;DHT22;37475;43.358;1.248;2023-08-12T07:44:29;22.20;84.90
51383;DHT22;37475;43.358;1.248;2023-08-12T07:46:55;22.20;84.90
51383;DHT22;37475;43.358;1.248;2023-08-12T07:49:22;22.30;84.90
51383;DHT22;37475;43.358;1.248;2023-08-12T07:51:48;22.50;85.10
51383;DHT22;37475;43.358;1.248;2023-08-12T07:54:14;22.60;84.70
51383;DHT22;37475;43.358;1.248;2023-08-12T07:56:39;22.90;84.00
51383;DHT22;37475;43.358;1.248;2023-08-12T07:59:06;23.00;83.20
51383;DHT22;37475;43.358;1.248;2023-08-12T08:01:32;23.00;82.50
51383;DHT22;37475;43.358;1.248;2023-08-12T08:03:57;23.10;82.70
51383;DHT22;37475;43.358;1.248;2023-08-12T08:06:23;23.10;82.80
51383;DHT22;37475;43.358;1.248;2023-08-12T08:08:49;23.10;82.60
51383;DHT22;37475;43.358;1.248;2023-08-12T08:11:15;23.20;82.60
51383;DHT22;37475;43.358;1.248;2023-08-12T08:13:41;23.30;82.40
51383;DHT22;37475;43.358;1.248;2023-08-12T08:16:07;23.30;82.30
51383;DHT22;37475;43.358;1.248;2023-08-12T08:18:32;23.60;82.20
51383;DHT22;37475;43.358;1.248;2023-08-12T08:20:58;23.60;81.00
51383;DHT22;37475;43.358;1.248;2023-08-12T08:23:24;23.70;81.10
51383;DHT22;37475;43.358;1.248;2023-08-12T08:25:50;23.70;81.00
51383;DHT22;37475;43.358;1.248;2023-08-12T08:28:16;23.80;81.10
51383;DHT22;37475;43.358;1.248;2023-08-12T08:30:41;23.90;80.50
51383;DHT22;37475;43.358;1.248;2023-08-12T08:33:08;24.00;80.10
51383;DHT22;37475;43.358;1.248;2023-08-12T08:35:34;24.20;79.30
51383;DHT22;37475;43.358;1.248;2023-08-12T08:38:00;24.10;79.00
51383;DHT22;37475;43.358;1.248;2023-08-12T08:40:26;24.10;79.40
51383;DHT22;37475;43.358;1.248;2023-08-12T08:42:52;24.20;78.90
51383;DHT22;37475;43.358;1.248;2023-08-12T08:45:21;24.30;79.30
51383;DHT22;37475;43.358;1.248;2023-08-12T08:47:50;24.30;79.10
51383;DHT22;37475;43.358;1.248;2023-08-12T08:50:17;24.40;78.80
51383;DHT22;37475;43.358;1.248;2023-08-12T08:52:43;24.70;78.40
51383;DHT22;37475;43.358;1.248;2023-08-12T08:55:09;24.80;77.60
51383;DHT22;37475;43.358;1.248;2023-08-12T08:57:37;24.80;76.80
51383;DHT22;37475;43.358;1.248;2023-08-12T09:00:05;24.90;77.10
51383;DHT22;37475;43.358;1.248;2023-08-12T09:02:35;24.90;77.00
51383;DHT22;37475;43.358;1.248;2023-08-12T09:05:02;25.00;76.70
51383;DHT22;37475;43.358;1.248;2023-08-12T09:07:29;24.90;76.00
51383;DHT22;37475;43.358;1.248;2023-08-12T09:09:56;25.00;76.90
51383;DHT22;37475;43.358;1.248;2023-08-12T09:12:24;25.00;76.30
51383;DHT22;37475;43.358;1.248;2023-08-12T09:14:51;25.30;76.30
51383;DHT22;37475;43.358;1.248;2023-08-12T09:17:17;25.60;75.10
51383;DHT22;37475;43.358;1.248;2023-08-12T09:19:42;25.60;73.30
51383;DHT22;37475;43.358;1.248;2023-08-12T09:22:08;25.70;73.70
51383;DHT22;37475;43.358;1.248;2023-08-12T09:24:34;25.90;73.10
51383;DHT22;37475;43.358;1.248;2023-08-12T09:27:00;25.80;72.90
51383;DHT22;37475;43.358;1.248;2023-08-12T09:29:33;25.80;73.50
51383;DHT22;37475;43.358;1.248;2023-08-12T09:32:13;26.00;73.40
51383;DHT22;37475;43.358;1.248;2023-08-12T09:37:13;26.60;70.80
51383;DHT22;37475;43.358;1.248;2023-08-12T09:39:40;26.70;69.80
51383;DHT22;37475;43.358;1.248;2023-08-12T09:42:06;27.00;69.90
51383;DHT22;37475;43.358;1.248;2023-08-12T09:44:36;26.90;67.60
51383;DHT22;37475;43.358;1.248;2023-08-12T09:47:03;27.10;68.40
51383;DHT22;37475;43.358;1.248;2023-08-12T09:49:29;27.00;68.60
51383;DHT22;37475;43.358;1.248;2023-08-12T09:51:55;26.90;68.40
51383;DHT22;37475;43.358;1.248;2023-08-12T09:54:22;27.20;67.40
51383;DHT22;37475;43.358;1.248;2023-08-12T09:56:54;27.40;67.30
51383;DHT22;37475;43.358;1.248;2023-08-12T09:59:22;27.40;65.90
51383;DHT22;37475;43.358;1.248;2023-08-12T10:01:50;27.50;66.00
51383;DHT22;37475;43.358;1.248;2023-08-12T10:04:18;27.50;65.30
51383;DHT22;37475;43.358;1.248;2023-08-12T10:06:47;27.50;66.10
51383;DHT22;37475;43.358;1.248;2023-08-12T10:09:17;27.60;66.60
51383;DHT22;37475;43.358;1.248;2023-08-12T10:11:44;27.80;65.40
51383;DHT22;37475;43.358;1.248;2023-08-12T10:14:11;27.80;64.40
51383;DHT22;37475;43.358;1.248;2023-08-12T10:16:37;27.80;64.50
51383;DHT22;37475;43.358;1.248;2023-08-12T10:19:05;27.90;64.20
51383;DHT22;37475;43.358;1.248;2023-08-12T10:21:32;27.90;64.60
51383;DHT22;37475;43.358;1.248;2023-08-12T10:23:59;28.00;64.20
51383;DHT22;37475;43.358;1.248;2023-08-12T10:26:25;28.00;64.90
51383;DHT22;37475;43.358;1.248;2023-08-12T10:28:51;28.00;64.10
51383;DHT22;37475;43.358;1.248;2023-08-12T10:31:18;28.20;64.60
51383;DHT22;37475;43.358;1.248;2023-08-12T10:33:44;28.50;63.20
51383;DHT22;37475;43.358;1.248;2023-08-12T10:36:15;28.50;62.20
51383;DHT22;37475;43.358;1.248;2023-08-12T10:38:41;28.70;62.00
51383;DHT22;37475;43.358;1.248;2023-08-12T10:41:17;28.50;62.40
51383;DHT22;37475;43.358;1.248;2023-08-12T10:46:24;29.10;59.20
51383;DHT22;37475;43.358;1.248;2023-08-12T10:49:08;29.00;59.90
51383;DHT22;37475;43.358;1.248;2023-08-12T10:51:40;28.80;60.70
51383;DHT22;37475;43.358;1.248;2023-08-12T10:54:24;29.00;60.40
51383;DHT22;37475;43.358;1.248;2023-08-12T11:02:18;29.60;59.00
51383;DHT22;37475;43.358;1.248;2023-08-12T11:04:44;29.10;59.70
51383;DHT22;37475;43.358;1.248;2023-08-12T11:07:18;29.10;59.50
51383;DHT22;37475;43.358;1.248;2023-08-12T11:09:46;29.40;60.60
51383;DHT22;37475;43.358;1.248;2023-08-12T11:12:18;29.60;57.60
51383;DHT22;37475;43.358;1.248;2023-08-12T11:14:53;29.50;57.40
51383;DHT22;37475;43.358;1.248;2023-08-12T11:17:20;29.70;57.60
51383;DHT22;37475;43.358;1.248;2023-08-12T11:19:55;30.10;57.60
51383;DHT22;37475;43.358;1.248;2023-08-12T11:22:21;30.30;55.90
51383;DHT22;37475;43.358;1.248;2023-08-12T11:24:48;30.40;56.30
51383;DHT22;37475;43.358;1.248;2023-08-12T11:27:14;30.10;55.80
51383;DHT22;37475;43.358;1.248;2023-08-12T11:29:40;30.00;56.50
51383;DHT22;37475;43.358;1.248;2023-08-12T11:32:06;30.00;56.80
51383;DHT22;37475;43.358;1.248;2023-08-12T11:34:32;30.10;55.80
51383;DHT22;37475;43.358;1.248;2023-08-12T11:36:58;30.10;56.80
51383;DHT22;37475;43.358;1.248;2023-08-12T11:39:24;30.00;55.10
51383;DHT22;37475;43.358;1.248;2023-08-12T11:41:50;30.30;55.60
51383;DHT22;37475;43.358;1.248;2023-08-12T11:44:16;30.20;55.60
51383;DHT22;37475;43.358;1.248;2023-08-12T11:46:43;30.70;54.80
51383;DHT22;37475;43.358;1.248;2023-08-12T11:49:08;31.30;53.50
51383;DHT22;37475;43.358;1.248;2023-08-12T11:51:35;31.40;51.30
51383;DHT22;37475;43.358;1.248;2023-08-12T11:54:01;31.30;52.00
51383;DHT22;37475;43.358;1.248;2023-08-12T11:56:27;31.20;52.00
51383;DHT22;37475;43.358;1.248;2023-08-12T11:58:53;31.40;51.80
51383;DHT22;37475;43.358;1.248;2023-08-12T12:01:21;31.20;51.70
51383;DHT22;37475;43.358;1.248;2023-08-12T12:03:54;31.10;52.70
51383;DHT22;37475;43.358;1.248;2023-08-12T12:06:35;31.50;51.00
51383;DHT22;37475;43.358;1.248;2023-08-12T12:09:08;31.80;50.10
51383;DHT22;37475;43.358;1.248;2023-08-12T12:11:39;31.40;51.20
51383;DHT22;37475;43.358;1.248;2023-08-12T12:14:07;31.40;51.40
51383;DHT22;37475;43.358;1.248;2023-08-12T12:16:47;30.90;51.60
51383;DHT22;37475;43.358;1.248;2023-08-12T12:19:21;31.00;52.00
51383;DHT22;37475;43.358;1.248;2023-08-12T12:21:52;31.20;51.10
51383;DHT22;37475;43.358;1.248;2023-08-12T12:24:19;31.10;51.60
51383;DHT22;37475;43.358;1.248;2023-08-12T12:26:46;31.50;51.80
51383;DHT22;37475;43.358;1.248;2023-08-12T12:29:13;32.00;49.40
51383;DHT22;37475;43.358;1.248;2023-08-12T12:31:40;32.00;49.70
51383;DHT22;37475;43.358;1.248;2023-08-12T12:34:07;31.90;48.40
51383;DHT22;37475;43.358;1.248;2023-08-12T12:36:37;31.80;49.70
51383;DHT22;37475;43.358;1.248;2023-08-12T12:39:04;32.20;48.70
51383;DHT22;37475;43.358;1.248;2023-08-12T12:41:30;32.50;49.00
51383;DHT22;37475;43.358;1.248;2023-08-12T12:43:56;32.90;47.90
51383;DHT22;37475;43.358;1.248;2023-08-12T12:46:23;33.20;45.80
51383;DHT22;37475;43.358;1.248;2023-08-12T12:48:49;33.40;46.10
51383;DHT22;37475;43.358;1.248;2023-08-12T12:51:14;33.70;45.70
51383;DHT22;37475;43.358;1.248;2023-08-12T12:53:40;33.80;44.70
51383;DHT22;37475;43.358;1.248;2023-08-12T12:56:06;34.00;44.80
51383;DHT22;37475;43.358;1.248;2023-08-12T12:58:33;33.50;44.70
51383;DHT22;37475;43.358;1.248;2023-08-12T13:01:01;33.00;45.50
51383;DHT22;37475;43.358;1.248;2023-08-12T13:03:27;33.00;46.20
51383;DHT22;37475;43.358;1.248;2023-08-12T13:05:54;33.30;45.20
51383;DHT22;37475;43.358;1.248;2023-08-12T13:08:20;33.10;45.70
51383;DHT22;37475;43.358;1.248;2023-08-12T13:10:46;33.00;46.20
51383;DHT22;37475;43.358;1.248;2023-08-12T13:13:15;31.90;47.50
51383;DHT22;37475;43.358;1.248;2023-08-12T13:15:45;31.90;48.20
51383;DHT22;37475;43.358;1.248;2023-08-12T13:18:11;32.00;47.70
51383;DHT22;37475;43.358;1.248;2023-08-12T13:20:37;31.50;49.00
51383;DHT22;37475;43.358;1.248;2023-08-12T13:23:04;31.80;48.40
51383;DHT22;37475;43.358;1.248;2023-08-12T13:25:32;32.70;47.70
51383;DHT22;37475;43.358;1.248;2023-08-12T13:28:02;33.20;45.80
51383;DHT22;37475;43.358;1.248;2023-08-12T13:30:29;34.00;44.20
51383;DHT22;37475;43.358;1.248;2023-08-12T13:32:55;33.80;44.30
51383;DHT22;37475;43.358;1.248;2023-08-12T13:35:22;34.00;43.90
51383;DHT22;37475;43.358;1.248;2023-08-12T13:37:49;33.50;44.20
51383;DHT22;37475;43.358;1.248;2023-08-12T13:40:16;33.40;46.00
51383;DHT22;37475;43.358;1.248;2023-08-12T13:42:42;34.30;43.40
51383;DHT22;37475;43.358;1.248;2023-08-12T13:45:10;35.00;42.50
51383;DHT22;37475;43.358;1.248;2023-08-12T13:47:36;33.70;44.00
51383;DHT22;37475;43.358;1.248;2023-08-12T13:50:03;33.00;44.90
51383;DHT22;37475;43.358;1.248;2023-08-12T13:52:29;32.90;46.40
51383;DHT22;37475;43.358;1.248;2023-08-12T13:54:54;33.00;45.50
51383;DHT22;37475;43.358;1.248;2023-08-12T13:57:20;33.10;45.50
51383;DHT22;37475;43.358;1.248;2023-08-12T13:59:46;33.40;45.10
51383;DHT22;37475;43.358;1.248;2023-08-12T14:02:13;33.80;43.60
51383;DHT22;37475;43.358;1.248;2023-08-12T14:04:39;33.60;44.40
51383;DHT22;37475;43.358;1.248;2023-08-12T14:07:05;33.10;44.80
51383;DHT22;37475;43.358;1.248;2023-08-12T14:09:31;33.20;44.90
51383;DHT22;37475;43.358;1.248;2023-08-12T14:11:58;33.80;43.90
51383;DHT22;37475;43.358;1.248;2023-08-12T14:14:27;33.50;43.90
51383;DHT22;37475;43.358;1.248;2023-08-12T14:16:54;32.60;45.30
51383;DHT22;37475;43.358;1.248;2023-08-12T14:19:20;33.10;45.50
51383;DHT22;37475;43.358;1.248;2023-08-12T14:21:45;34.10;43.40
51383;DHT22;37475;43.358;1.248;2023-08-12T14:24:12;34.00;43.10
51383;DHT22;37475;43.358;1.248;2023-08-12T14:26:39;33.10;45.00
51383;DHT22;37475;43.358;1.248;2023-08-12T14:29:05;34.00;44.20
51383;DHT22;37475;43.358;1.248;2023-08-12T14:31:31;34.20;42.70
51383;DHT22;37475;43.358;1.248;2023-08-12T14:33:57;34.50;41.80
51383;DHT22;37475;43.358;1.248;2023-08-12T14:36:23;33.80;42.80
51383;DHT22;37475;43.358;1.248;2023-08-12T14:38:50;33.50;44.40
51383;DHT22;37475;43.358;1.248;2023-08-12T14:41:16;34.20;42.90
51383;DHT22;37475;43.358;1.248;2023-08-12T14:43:42;34.80;41.30
51383;DHT22;37475;43.358;1.248;2023-08-12T14:46:08;34.90;41.60
51383;DHT22;37475;43.358;1.248;2023-08-12T14:48:34;34.90;41.20
51383;DHT22;37475;43.358;1.248;2023-08-12T14:51:00;34.90;40.90
51383;DHT22;37475;43.358;1.248;2023-08-12T14:53:25;34.60;42.00
51383;DHT22;37475;43.358;1.248;2023-08-12T14:55:51;34.60;41.70
51383;DHT22;37475;43.358;1.248;2023-08-12T14:58:17;35.00;41.20
51383;DHT22;37475;43.358;1.248;2023-08-12T15:00:43;35.00;41.80
51383;DHT22;37475;43.358;1.248;2023-08-12T15:03:09;34.80;41.60
51383;DHT22;37475;43.358;1.248;2023-08-12T15:05:36;33.50;43.60
51383;DHT22;37475;43.358;1.248;2023-08-12T15:08:02;34.00;43.00
51383;DHT22;37475;43.358;1.248;2023-08-12T15:10:29;34.80;42.00
51383;DHT22;37475;43.358;1.248;2023-08-12T15:12:55;34.30;42.90
51383;DHT22;37475;43.358;1.248;2023-08-12T15:15:21;34.50;42.00
51383;DHT22;37475;43.358;1.248;2023-08-12T15:17:47;34.50;43.10
51383;DHT22;37475;43.358;1.248;2023-08-12T15:20:12;34.30;42.30
51383;DHT22;37475;43.358;1.248;2023-08-12T15:22:38;34.00;42.40
51383;DHT22;37475;43.358;1.248;2023-08-12T15:25:05;34.00;43.40
51383;DHT22;37475;43.358;1.248;2023-08-12T15:27:31;34.00;42.70
51383;DHT22;37475;43.358;1.248;2023-08-12T15:29:57;34.80;41.60
51383;DHT22;37475;43.358;1.248;2023-08-12T15:32:22;35.70;40.30
51383;DHT22;37475;43.358;1.248;2023-08-12T15:34:49;36.10;39.10
51383;DHT22;37475;43.358;1.248;2023-08-12T15:37:15;36.10;39.20
51383;DHT22;37475;43.358;1.248;2023-08-12T15:39:41;35.50;40.30